Velovelo
Português Nederlands 日本語 中文
Español English čeština slovenčina
русский italiano polski norsk
français Deutsch svenska عربي
 
 poprzednia strona
 Wyślij znajomemu
 Aby wydrukować
 ---> La Marmotte 2013 : du 2001ème au 3000ème

Cl...Dos.NomPrénomNatCat.C.cTemps..Moy
2001 2771 WISGERHOF ROBBERT HOL H.30-39 734 08:28:20 18.71
2002 4015 LASSCHE HARRY HOL H.40-49 696 08:28:22 18.68
2003 5071 AUGRIT REMI FRA H.18-29 280 08:28:24 19.24
2004 1637 PILARD GAEL ALL H.30-39 735 08:28:32 18.95
2005 39 COURTEIX OLIVIER FRA H.30-39 736 08:28:36 19.41
2006 8500 VAN DENBULCKE NICK BEL H.40-49 697 08:28:39 18.71
2007 1155 MOSS SIMON UK H.40-49 698 08:28:40 19.10
2008 7204 OOIJEVAAR RIKO HOL H.18-29 281 08:28:41 18.64
2009 5188 ENDRES NORBERT ALL H.40-49 699 08:28:41 19.22
2010 2515 BORGHESE FRANCOIS FRA H.40-49 700 08:28:41 19.03
2011 8601 GRAEME BLACKWOOD NOU H.50-59 239 08:28:51 19.04
2012 8248 HANOT DAVID BEL H.30-39 737 08:28:57 19.38
2013 4793 POSSELT MADS VANG DAN H.18-29 282 08:29:04 19.18
2014 904 DIJKMAN DUURT HOL H.30-39 738 08:29:06 18.51
2015 2783 BUITENHUIS KLAAS HOL H.50-59 240 08:29:11 19.26
2016 4084 KOEKEN BRAM HOL H.18-29 283 08:29:12 20.50
2017 2588 KERZEL ANDERS DAN H.40-49 701 08:29:14 19.13
2018 4492 DALL JACOB DAN H.40-49 702 08:29:21 19.13
2019 2624 DAVIES ANDREW WYN DAN H.40-49 703 08:29:21 19.28
2020 14 NAEGELY GUY FRA H.60-66 15 08:29:26 19.36
2021 5973 BISHOP ANTONY AUS H.50-59 241 08:29:31 19.11
2022 8304 WILLIAMSON JON SUI H.18-29 284 08:29:33 19.05
2023 2287 BAKERMANS ROBERT HOL H.40-49 704 08:29:35 18.57
2024 8062 VINCENT ADAM ANG H.30-39 739 08:29:36 18.99
2025 7517 THOMAS DIDIER BEL H.40-49 705 08:29:39 18.96
2026 7900 JOSE MARIA ESQUINAS RUIZ ESP H.30-39 740 08:29:39 18.82
2027 2919 EMILIO JOVER GARRIDO ESP H.30-39 741 08:29:41 18.35
2028 4044 JANSEN LEO HOL H.40-49 706 08:29:42 18.76
2029 4528 VAN TOOREN MIKE HOL H.18-29 285 08:29:44 18.70
2030 7988 BONNIFAIT CHRISTOPHE FRA H.30-39 742 08:29:45 18.58
2031 8350 DE WIT DEO HOL H.40-49 707 08:29:45 19.33
2032 4370 SOEGAARD MADS DAN H.18-29 286 08:29:53 19.10
2033 3376 DE VOGELAERE PHILIPPE BEL H.40-49 708 08:29:56 18.91
2034 8104 LARS HANSEN DAN H.40-49 709 08:30:02 18.89
2035 953 PETERSEN CAMILLA SCHUTT DAN F.18-34 14 08:30:06 18.79
2036 6867 ANDER ZULAIKA ARAKISTAIN ESP H.30-39 743 08:30:08 18.92
2037 3550 JENSEN KENNY EGMUTH DAN H.40-49 710 08:30:09 18.96
2038 1192 LORENTZEN JACOB DAN H.40-49 711 08:30:10 19.27
2039 4228 PIJPER BERNARD HOL H.18-29 287 08:30:14 18.98
2040 6454 SAVY SYLVAIN FRA H.30-39 744 08:30:15 19.10
2041 5289 HOEFMAN MARK HOL H.18-29 288 08:30:17 18.77
2042 5615 OLSEN POUL ARNE DAN H.40-49 712 08:30:22 19.24
2043 2655 LISMONT ROBERT BEL H.60-66 16 08:30:23 18.95
2044 5443 WALKER CHRIS ANG H.30-39 745 08:30:25 18.81
2045 2595 UTZON POUL DAN H.40-49 713 08:30:25 19.09
2046 2607 STOGER DAVID AUT H.18-29 289 08:30:28 18.98
2047 3163 OTTZEN NIELS DAN H.40-49 714 08:30:30 18.96
2048 3767 KOHLI CHRISTIAN SUI H.40-49 715 08:30:32 19.18
2049 970 RASMUSSEN CASPER DAN H.30-39 746 08:30:33 19.28
2050 85 DEZETAVE JEANNICK FRA H.60-66 17 08:30:38 18.66
2051 7289 JOAN LLINARES CARBALLO ESP H.40-49 716 08:30:38 19.14
2052 3593 AAGAARD KARSTEN DAN H.40-49 717 08:30:44 19.09
2053 1041 JALICOUX SEBASTIEN FRA H.30-39 747 08:30:44 18.21
2054 3620 BJOERNMOSE JENS DAN H.40-49 718 08:30:50 19.38
2055 1468 KRAGERUP HENRIK DAN H.40-49 719 08:30:50 19.38
2056 6807 ULLRICH WESTON FRA H.30-39 748 08:30:54 19.00
2057 3311 OVERBY LARS DAN H.40-49 720 08:31:01 19.15
2058 8685 FUGLSANG LARS DAN H.30-39 749 08:31:09 18.80
2059 4333 PAPPOT TEUN HOL H.30-39 750 08:31:10 18.61
2060 6005 VAN DE BROEK RENE HOL H.50-59 242 08:31:11 19.01
2061 8240 RAMON LACASTA LOPEZ ESP H.40-49 721 08:31:14 18.76
2062 5792 HUSSON PHILIPPE FRA H.50-59 243 08:31:16 17.97
2063 4545 LIPPENS GINO BEL H.40-49 722 08:31:22 18.99
2064 9966 BRUINSMA RADBOUD FRA H.40-49 723 08:31:23 19.24
2065 3858 KELLY NOEL IRL H.50-59 244 08:31:23 18.96
2066 8444 FRASER DUNCAN FRA H.40-49 724 08:31:32 18.85
2067 2196 VREULS ROY HOL H.40-49 725 08:31:34 18.80
2068 2606 ANDERSEN STEFFEN DALGAARD DAN H.40-49 726 08:31:35 18.91
2069 697 BAKKER FRANK HOL H.30-39 751 08:31:36 19.11
2070 5061 DUNCAN CHAPMAN ANG H.40-49 727 08:31:39 18.47
2071 3149 NIELSEN SOEREN DAN H.30-39 752 08:31:39 18.99
2072 2211 DEMAN FREDERIK BEL H.40-49 728 08:31:42 18.95
2073 253 OLLIVIER CHRISTIAN FRA H.50-59 245 08:31:42 18.98
2074 3606 BERENDSEN ERIC FRA H.40-49 729 08:31:44 19.32
2075 8190 GIETEMA BART HOL H.40-49 730 08:31:45 18.57
2076 1751 SINOT CHRISTIAN FRA H.50-59 246 08:31:47 19.23
2077 5737 JOSU MOTRIKO LARRAñAGA ESP H.30-39 753 08:31:50 18.86
2078 1483 PONCHEL RICHARD FRA H.60-66 18 08:31:52 19.41
2079 5463 CHEMIN GUY FRA H.40-49 731 08:31:55 18.68
2080 8743 LORENTZEN PIA S DAN F.50et+ 2 08:31:56 17.97
2081 4567 DE DECKERE GEERT BEL H.18-29 290 08:31:58 17.98
2082 3627 GING PAUL IRL H.40-49 732 08:31:59 18.93
2083 5177 POT NICOLAS FRA H.30-39 754 08:32:00 17.95
2084 8039 VERMEULEN JOEP HOL H.30-39 755 08:32:05 18.77
2085 5236 TORBEN DAMSGAARD JOHANSEN DAN H.40-49 733 08:32:10 18.99
2086 709 Doutreloigne WIM BEL H.40-49 734 08:32:12 18.93
2087 2126 KLAPWIJK PIETER HOL H.30-39 756 08:32:13 19.06
2088 1492 RAVN PEER DAN H.50-59 247 08:32:15 19.09
2089 2274 VANNESTE KRIS BEL H.40-49 735 08:32:16 19.06
2090 8524 PACI GIOVANNI ITA H.50-59 248 08:32:16 18.60
2091 573 HOLMBERG JESPER DAN H.40-49 736 08:32:22 18.83
2092 8401 SEJOURNANT THOMAS FRA H.18-29 291 08:32:25 18.85
2093 1044 KRISTIANSEN LARS FLESNER DAN H.40-49 737 08:32:26 19.04
2094 4418 PEACOCK SIMON UK H.40-49 738 08:32:32 18.24
2095 1469 JARDINE JOHN ANG H.40-49 739 08:32:33 19.14
2096 8684 BISP HENRIK DAN H.30-39 757 08:32:33 18.75
2097 7790 ROBERTI JEAN-PIERRE FRA H.50-59 249 08:32:34 18.60
2098 1915 VANDEWIELE BART BEL H.40-49 740 08:32:38 19.07
2099 1528 KOLKMAN TOM HOL H.18-29 292 08:32:40 18.27
2100 698 HULSMAN GREGO HOL H.40-49 741 08:32:41 19.02
2101 2645 ANDERSEN ANDERS DAN H.30-39 758 08:32:44 18.89
2102 5671 WAVERIJN PHILIP HOL H.18-29 293 08:32:48 18.93
2103 3564 MAHER CHRIS FRA H.40-49 742 08:32:48 19.12
2104 967 HARTVIG KIM DAN H.30-39 759 08:32:50 19.04
2105 1725 FECHTER PETER FRA H.30-39 760 08:32:50 18.49
2106 3971 CLERCKX MATTHIAS BEL H.30-39 761 08:32:53 18.84
2107 667 OPPERS JOHN HOL H.30-39 762 08:32:53 18.98
2108 883 BYLOOS PETER BEL H.40-49 743 08:32:55 17.95
2109 666 OPPERS CINDY HOL F.35-49 20 08:32:56 18.98
2110 52 RUSSIAS JACQUES FRA H.67et+ 3 08:32:56 18.99
2111 3712 DOUSY CARL BEL H.30-39 763 08:32:58 18.36
2112 8483 NIELSEN LARS ETA H.40-49 744 08:33:00 18.68
2113 5851 DUFTY MARTIN ANG H.50-59 250 08:33:01 18.90
2114 565 ERRINGSOE THOMAS DAN H.40-49 745 08:33:02 19.27
2115 5363 MONTI FAUSTO ITA H.40-49 746 08:33:12 19.10
2116 3252 BRIDGLAND NEIL UK H.40-49 747 08:33:14 18.89
2117 5257 OMMEN VAN JEROEN HOL H.30-39 764 08:33:17 18.78
2118 3575 GROEN VINCENT HOL H.30-39 765 08:33:20 18.56
2119 1553 LUZI LAURENT FRA H.40-49 748 08:33:21 18.89
2120 2901 VRIJDERS FREDDY BEL H.60-66 19 08:33:22 18.91
2121 1944 BROUSSE PASCAL FRA H.40-49 749 08:33:24 18.48
2122 2270 FONTEIN DERK HOL H.30-39 766 08:33:25 18.82
2123 7712 ROUGEMONT LAURENT FRA H.30-39 767 08:33:29 18.80
2124 5271 VALERO GIMENO CARLOS ESP H.18-29 294 08:33:30 19.09
2125 6074 JIMENEZ BOYANO MANUEL ESP H.30-39 768 08:33:36 18.49
2126 5419 LAIR MICHAEL FRA H.18-29 295 08:33:37 18.81
2127 2994 RASMUSSEN KELD BOEGH DAN H.40-49 750 08:33:40 18.76
2128 6912 FRUITOS FALGUERA JOAN ESP H.50-59 251 08:33:40 18.76
2129 7057 EVERSDEN DAN ANG H.30-39 769 08:33:42 19.26
2130 2488 AUNVIG TOMMY DAN H.40-49 751 08:33:50 19.01
2131 7774 PETTER HENDRIK HOL H.30-39 770 08:33:51 18.91
2132 4010 OSSEWOLD EDWIN HOL H.50-59 252 08:33:51 18.98
2133 5704 MEYERS GUY BEL H.50-59 253 08:33:53 18.90
2134 986 UTH METTE DAN F.35-49 21 08:33:57 19.04
2135 862 ROEGIERS LUC BEL H.30-39 771 08:34:01 17.99
2136 7938 TURNER MARK FRA H.40-49 752 08:34:07 18.62
2137 15 TRONEL JEAN JACQUES FRA H.60-66 20 08:34:10 18.80
2138 4427 KUYSTEN EDDIE NOU H.50-59 254 08:34:10 18.93
2139 3377 DE WINTER JAN BEL H.50-59 255 08:34:11 18.99
2140 8803 BALINT HORVATH HON H.30-39 772 08:34:14 19.00
2141 4142 VAN LOON RICHARD HOL H.40-49 753 08:34:15 18.78
2142 6510 GLAUSER SEBASTIEN SUI H.30-39 773 08:34:16 18.74
2143 6948 HONKOOP THEO HOL H.30-39 774 08:34:20 18.81
2144 8751 ALLIET PETER BEL H.50-59 256 08:34:22 19.08
2145 5235 ARANTZETA EÑAUT ESP H.30-39 775 08:34:28 19.04
2146 7745 FARRET MAX FRA H.50-59 257 08:34:28 19.21
2147 2231 LOEFFEN ROBERT-JAN HOL H.18-29 296 08:34:29 18.78
2148 3859 MURPHY DECLAN IRL H.40-49 754 08:34:30 18.66
2149 3983 LEMARTINEL MICKAEL FRA H.30-39 776 08:34:31 19.21
2150 7134 RIJKMANS MAARTEN HOL H.18-29 297 08:34:32 18.83
2151 1164 KNUDSEN HENRIK DAN H.30-39 777 08:34:39 18.15
2152 4862 KOLDBY JESPER DAN H.30-39 778 08:34:39 18.92
2153 1920 TAJAN ALAIN FRA H.60-66 21 08:34:42 19.12
2154 891 BESSEMANS PAUL BEL H.60-66 22 08:34:44 19.07
2155 1290 KROELL ANDERS DAN H.40-49 755 08:34:52 18.18
2156 1061 ANDERSEN PETER JOACHIM DAN H.40-49 756 08:34:53 18.99
2157 3463 SWALES TIMOTHY ANG H.50-59 258 08:34:55 18.83
2158 3862 DUGALEIX LIONEL FRA H.40-49 757 08:34:57 18.77
2159 3686 DEMEILLERS ROMAIN FRA H.30-39 779 08:34:58 18.89
2160 6151 FRESSENET DAVID FRA H.30-39 780 08:34:59 18.98
2161 2504 SCHRODER CHRISTIAN DAN H.40-49 758 08:35:03 18.98
2162 8452 SOUCHAL JULIEN FRA H.30-39 781 08:35:07 18.98
2163 7703 LOPEZ SANTOS JESUS ESP H.40-49 759 08:35:10 18.96
2164 2453 CHRISTENSEN CASPER DAN H.40-49 760 08:35:12 18.73
2165 4426 MOCEN ELIZABETH ETA H.50-59 259 08:35:15 18.50
2166 3298 LINDBERG CARSTEN DAN H.50-59 260 08:35:15 18.95
2167 3583 SCHMITT WOLF-ERIK ALL H.40-49 761 08:35:15 19.08
2168 1687 LUNDBY SOEREN DAN H.40-49 762 08:35:15 18.97
2169 2057 Nieuwenhuizen AD HOL H.60-66 23 08:35:19 19.17
2170 2479 MORTEN HEINE SOERENSEN DAN H.40-49 763 08:35:27 18.83
2171 8789 DE GROOT ARIE SUI H.40-49 764 08:35:31 18.09
2172 6730 WALL ANDREW ANG H.40-49 765 08:35:34 18.99
2173 6718 MOULIN YVES FRA H.50-59 261 08:35:35 18.84
2174 3030 JOERGENSEN LARS DAN H.40-49 766 08:35:36 18.87
2175 2724 HANSSEN JOS BEL H.50-59 262 08:35:40 19.03
2176 9958 CASTELLAR ALBERT ESP H.30-39 782 08:35:41 19.15
2177 2218 JANSSEN TOM HOL H.40-49 767 08:35:41 19.12
2178 2679 VOLLAARD ROELAND HOL H.50-59 263 08:35:42 18.66
2179 3563 VAN GEESBERGEN DIRK BEL H.50-59 264 08:35:46 19.03
2180 507 KOOPS SANDER HOL H.18-29 298 08:35:48 19.03
2181 9939 OF DENMARK FREDERIK DAN H.40-49 768 08:35:51 18.74
2182 3528 LYRSHOLT FREDERIK HAUGELUND DAN H.30-39 783 08:35:51 18.20
2183 2555 GRAEME DAVID ANG H.40-49 769 08:35:55 18.37
2184 3914 MADSEN ALLAN DAN H.30-39 784 08:35:56 18.91
2185 708 FORIER MARK BEL H.40-49 770 08:35:56 18.60
2186 1752 HAN ANDREW ANG H.30-39 785 08:35:56 18.99
2187 314 DUNEUF GERMAIN FLORENT FRA H.30-39 786 08:35:56 19.13
2188 1858 HUDSON MARTIN ANG H.40-49 771 08:35:57 18.94
2189 5083 NOUWENS VALENTIJN HOL H.30-39 787 08:35:57 18.85
2190 1755 GRøNBæK NIELS DAN H.60-66 24 08:36:10 18.54
2191 4102 WEMMENHOVE BART HOL H.18-29 299 08:36:13 17.31
2192 990 HANSEN TOMMI DAN H.60-66 25 08:36:24 18.71
2193 2386 TER HARMSEL HENK HOL H.50-59 265 08:36:27 18.53
2194 991 JOERGENSEN POVL ERIK DAN H.60-66 26 08:36:32 18.71
2195 5251 SCHRA JARNO HOL H.30-39 788 08:36:33 18.54
2196 3447 DAVEY NEIL UK H.40-49 772 08:36:35 19.03
2197 5275 LEGROS FRANCIS BEL H.40-49 773 08:36:35 18.62
2198 5742 VERHOEVEN JONAS BEL H.30-39 789 08:36:35 18.29
2199 3822 SFALI HOCINE FRA H.40-49 774 08:36:36 18.99
2200 2190 BEZEMER JURN HOL H.30-39 790 08:36:37 18.77
2201 3991 RAVAGLIA FRANCO ITA H.50-59 266 08:36:39 18.68
2202 5068 VAN GRIEKEN MARC BEL H.18-29 300 08:36:40 18.58
2203 6331 LOLICHON PASCAL FRA H.50-59 267 08:36:43 18.83
2204 4014 LEENEN MARK HOL H.50-59 268 08:36:48 18.58
2205 2910 MADSEN MARTIN DAN H.30-39 791 08:36:48 18.86
2206 1507 VANCUTSEM JOEL BEL H.40-49 775 08:36:49 18.69
2207 6749 XAVI COSTA TOLRA ESP H.30-39 792 08:36:49 18.70
2208 3060 JOERGENSEN STEEN FRIIS DAN H.50-59 269 08:36:51 18.12
2209 6628 GARCIA JEAN CHRISTOPHE FRA H.30-39 793 08:36:52 18.60
2210 8293 COSTA DEL POZO GIL ESP H.30-39 794 08:36:55 18.84
2211 8692 ALBERTSEN LARS DAN H.50-59 270 08:37:01 18.23
2212 510 GEVERS PETER HOL H.50-59 271 08:37:02 18.91
2213 45 JANSEN JAN FRA H.50-59 272 08:37:07 19.06
2214 6076 REYES RODRIGUEZ RAUL ESP H.30-39 795 08:37:08 18.37
2215 4477 PETERSEN SONNY MOERK DAN H.40-49 776 08:37:11 18.58
2216 7901 IGLESIAS MARINA RAMON ESP H.30-39 796 08:37:11 18.57
2217 7219 HOORNAERT PIETER BEL H.30-39 797 08:37:11 18.62
2218 2220 SCHOUTEN ROB HOL H.30-39 798 08:37:15 18.79
2219 3813 CASABON JEAN PAUL FRA H.50-59 273 08:37:19 18.97
2220 7777 JOSE EDUARDO PICAZO MARTINEZ ESP H.30-39 799 08:37:19 18.74
2221 7405 DIAZ MARTINEZ JORGE ESP H.40-49 777 08:37:20 18.96
2222 7135 ROSIER PETER HOL H.18-29 301 08:37:21 18.81
2223 9941 BREDVIG SOREN DAN H.40-49 778 08:37:23 18.74
2224 652 VAN DER WERF TEUNIS HOL H.50-59 274 08:37:24 18.95
2225 5645 VALVIK MARTIN DAN H.30-39 800 08:37:24 18.34
2226 8169 DELLINGER JEAN CLAUDE FRA H.50-59 275 08:37:24 18.76
2227 5981 DREW STEVEN ANG H.40-49 779 08:37:25 18.64
2228 1079 MULLER ULRICH DAN H.40-49 780 08:37:25 18.66
2229 2164 CLINCKSPOOR STIJN BEL H.30-39 801 08:37:29 18.72
2230 7312 REGOTTAZ PHILIPPE FRA H.40-49 781 08:37:33 18.37
2231 5787 DE BLAUWE KEVIN BEL H.30-39 802 08:37:38 18.43
2232 3817 LABOURDETTE DIDIER FRA H.40-49 782 08:37:39 18.96
2233 8442 NEWLYN SIMON FRA H.50-59 276 08:37:40 18.42
2234 1953 LEBON ALEXANDRE FRA H.30-39 803 08:37:41 18.64
2235 7153 DUDZIAK ARTUR POL H.40-49 783 08:37:45 18.11
2236 4100 VAN DOMMELEN FRANK HOL H.50-59 277 08:37:47 18.35
2237 8511 Champarnaud JACQUES FRA H.60-66 27 08:37:48 18.88
2238 7667 SANCHEZ JAVIER ESP H.40-49 784 08:37:48 18.48
2239 7055 HOFKENS KOEN BEL H.40-49 785 08:37:49 18.75
2240 4747 ROTH ALEX H.18-29 302 08:37:50 18.43
2241 5119 VERSTRAETE ROBIN BEL H.30-39 804 08:37:55 18.64
2242 1425 DURUPT JEAN YVES FRA H.40-49 786 08:38:01 18.97
2243 7693 DEMENEZES ERIC FRA H.50-59 278 08:38:01 18.98
2244 3256 SATURLEY JUSTIN UK H.40-49 787 08:38:03 18.61
2245 1826 WALKER PAUL ANG H.40-49 788 08:38:06 18.75
2246 4365 PEDERSEN ANDREAS CHRISTIAN DAN H.40-49 789 08:38:06 18.75
2247 4323 POTALIVO DIEGO ITA H.30-39 805 08:38:07 18.86
2248 3990 ZAMBONI ANDREA ITA H.50-59 279 08:38:08 18.68
2249 143 STEWART ROBIN UK H.40-49 790 08:38:08 18.51
2250 5345 GALVIN DONNACHA IRL H.30-39 806 08:38:12 18.82
2251 7877 SANCHEZ JOSE ESP H.40-49 791 08:38:12 18.74
2252 776 COPERMANS PHILIPPE BEL H.40-49 792 08:38:15 17.78
2253 2519 SHEILS GARY IRL H.40-49 793 08:38:17 18.80
2254 5751 MONAGHAN IAN ANG H.40-49 794 08:38:17 18.69
2255 6939 ONGENA TOMMY BEL H.18-29 303 08:38:18 18.91
2256 1420 SEGHERS DIRK BEL H.40-49 795 08:38:18 18.83
2257 7861 DONCIEUX NICOLAS FRA H.40-49 796 08:38:18 18.77
2258 2040 STEVENS SVEN BEL H.40-49 797 08:38:19 18.74
2259 3395 LAMBERT STEVEN BEL H.18-29 304 08:38:22 18.29
2260 8220 THOM MATT ANG H.30-39 807 08:38:27 18.33
2261 308 AGEZ DOMINIQUE FRA H.50-59 280 08:38:27 19.07
2262 1342 NORREGAARD TORBEN DAN H.40-49 798 08:38:35 19.01
2263 5409 LEMOINE STEPHEN FRA H.30-39 808 08:38:38 18.85
2264 2514 MAUBRUN DAVID FRA H.40-49 799 08:38:47 18.93
2265 1244 HUIJBREGTS WILFRIED HOL H.30-39 809 08:38:48 18.99
2266 4721 ANDERSEN PREBEN STRANDBY DAN H.50-59 281 08:38:52 18.73
2267 2984 ROBERTS DAVE UK H.40-49 800 08:38:54 18.32
2268 4330 BOERMA JUNIN HOL H.40-49 801 08:39:00 18.78
2269 2863 JACOBS RAFFI UK H.30-39 810 08:39:03 18.72
2270 4104 LOCKEFEIR RENE HOL H.40-49 802 08:39:03 18.89
2271 696 VO THAI HOL H.30-39 811 08:39:07 18.94
2272 7592 CASANOVA DANIEL FRA H.60-66 28 08:39:09 18.85
2273 6809 CARR RICHARD ANG H.40-49 803 08:39:10 18.71
2274 4529 VAN TOOREN HARM HOL H.50-59 282 08:39:10 18.39
2275 4909 OLSEN PER TORBEN DAN H.50-59 283 08:39:12 18.05
2276 3857 CRUISE AIDAN FRA H.50-59 284 08:39:13 18.90
2277 2983 MCCARTHY JAMES UK H.30-39 812 08:39:16 18.36
2278 4676 NIELSEN LARS B. DAN H.50-59 285 08:39:18 18.76
2279 2795 MEULEWAETER NICOLE BEL F.35-49 22 08:39:20 18.59
2280 6557 PAUWELS KRISTIAAN BEL H.40-49 804 08:39:23 18.60
2281 5405 VLEMINCX STEVEN BEL H.30-39 813 08:39:24 18.53
2282 4092 DE RAADT JAN HENDRIK HOL H.40-49 805 08:39:27 18.28
2283 658 VINKEN BERT HOL H.50-59 286 08:39:29 18.27
2284 8125 POGNAT DAVID FRA H.40-49 806 08:39:33 18.67
2285 1069 SOERENSEN JESPER BUNDGAARD DAN H.50-59 287 08:39:42 18.83
2286 3430 VAN DERMEULEN TOM BEL H.40-49 807 08:39:51 18.80
2287 3785 CHATAGNER THOMAS FRA H.40-49 808 08:39:55 18.45
2288 2030 WICKS DAVID NOU H.40-49 809 08:39:55 18.79
2289 5706 SMEDTS LUC BEL H.50-59 288 08:39:56 18.38
2290 6455 DELAHAYE PASCAL FRA H.40-49 810 08:39:56 18.58
2291 1743 LAURENT WEMEL BEL H.18-29 305 08:39:57 18.20
2292 246 WINGFIELD JONATHAN ANG H.40-49 811 08:40:00 20.07
2293 6327 ASTLE TERRY ANG H.60-66 29 08:40:01 18.76
2294 3429 Vandekerckhove KOEN BEL H.40-49 812 08:40:01 18.81
2295 4861 PEDERSEN LARS BJOERN DAN H.18-29 306 08:40:02 18.65
2296 3863 NAON ERIC FRA H.50-59 289 08:40:03 18.16
2297 7424 DE RUYSSCHER DIRK BEL H.50-59 290 08:40:04 18.60
2298 4475 JENSEN KIM DAN H.40-49 813 08:40:10 17.31
2299 6252 GUSTAAF LAMBERT VAES ETA H.50-59 291 08:40:13 18.80
2300 5056 CALIZZANO ALEX FRA H.30-39 814 08:40:14 18.53
2301 2716 PETERS MARK HOL H.30-39 815 08:40:27 18.83
2302 2814 PEPERMANS BART BEL H.30-39 816 08:40:32 18.45
2303 6409 PINA RUIZ ANDRES ESP H.50-59 292 08:40:34 18.58
2304 8638 PETRIE BOB ANG H.40-49 814 08:40:35 18.92
2305 644 CHRISTENSEN HENRIK DAN H.40-49 815 08:40:38 18.76
2306 5779 Jaureguibeitia MIKELDI ESP H.30-39 817 08:40:39 18.62
2307 4751 ANDERSEN BRIAN DAN H.30-39 818 08:40:41 18.46
2308 9951 BROUWER ERIC FRA H.50-59 293 08:40:41 18.71
2309 5025 VAN DER KOLK KLAAS HOL H.40-49 816 08:40:42 18.70
2310 8199 MIGUEL ANGEL PENABELLA ESP H.40-49 817 08:40:42 18.51
2311 916 COEN JAN BEL H.40-49 818 08:40:46 18.23
2312 2403 SMET KAREL HOL H.50-59 294 08:40:48 18.99
2313 630 WULFF HENRIK DAN H.40-49 819 08:40:48 15.49
2314 1651 BESOMBES BERTRAND FRA H.40-49 820 08:40:48 18.66
2315 7034 VAN BOKHORST JORAN HOL H.30-39 819 08:40:50 18.65
2316 4797 BENDSEN JOHNNY DAN H.40-49 821 08:40:53 18.95
2317 2530 CLARKE NIALL IRL H.30-39 820 08:40:54 18.80
2318 1264 ENTHOVEN COR HOL H.60-66 30 08:40:57 18.49
2319 5478 BOONEN MARK HOL H.18-29 307 08:40:57 18.43
2320 2089 ZOMER WIM FRA H.50-59 295 08:40:58 18.80
2321 3685 VAN BOXEL LEO HOL H.40-49 822 08:40:58 18.51
2322 2123 VAN ASSCHE DIETER BEL H.40-49 823 08:41:03 18.44
2323 4251 VAN STEEN VINCENT HOL H.30-39 821 08:41:15 18.36
2324 3672 HUNT GREGORY ANG H.40-49 824 08:41:16 18.93
2325 3304 MADSEN EGIL DAN H.50-59 296 08:41:16 18.62
2326 7870 COOPER WILLIAMS MATTHEW CAN H.40-49 825 08:41:17 17.34
2327 7823 GRøNNEGAARD LARS DAN H.40-49 826 08:41:21 18.28
2328 3582 VALENTINER THOMAS DAN H.40-49 827 08:41:21 18.16
2329 2800 PRINCE JOOST HOL H.30-39 822 08:41:25 18.78
2330 3361 BERTELS KRIS BEL H.40-49 828 08:41:25 18.71
2331 4514 ANDRESEN HENRIK DAN H.30-39 823 08:41:31 18.67
2332 7803 ROBUTTI PAOLO ITA H.40-49 829 08:41:33 18.72
2333 1530 DE DOBBELEER SVEN BEL H.30-39 824 08:41:34 18.50
2334 4301 GAZZERA FRANCESCO ITA H.40-49 830 08:41:34 18.72
2335 1180 BUUSMAN ALLAN DAN H.50-59 297 08:41:34 18.09
2336 4709 HANSSON MIKAEL SUE H.40-49 831 08:41:35 18.49
2337 2816 SALIEN STIJN BEL H.30-39 825 08:41:36 18.45
2338 7091 FRANCISCO ROZAS SOLA ESP H.40-49 832 08:41:38 18.64
2339 5323 BERAUD PASCAL FRA H.50-59 298 08:41:38 18.86
2340 5670 KNEPPERS HARRY HOL H.60-66 31 08:41:40 18.48
2341 874 BLOMMAERT ROEL BEL H.40-49 833 08:41:41 17.52
2342 3787 HAUMANN ERIC FRA H.40-49 834 08:41:41 18.28
2343 3094 GABRIELSEN BENT DAN H.50-59 299 08:41:44 18.88
2344 7178 STRUYF LUC BEL H.40-49 835 08:41:45 18.55
2345 3134 ALLERUP NIELS TOFT DAN H.18-29 308 08:41:46 18.63
2346 1590 SORENSEN ANDERS DAN H.40-49 836 08:41:51 18.62
2347 3382 DECLERCQ WIM BEL H.50-59 300 08:41:55 18.83
2348 6376 JANSSEN MAARTEN HOL H.18-29 309 08:41:58 18.38
2349 6530 SERGI DOMEñO BAZTAN ESP H.30-39 826 08:41:59 18.20
2350 1885 PETERSEN MORTEN DAN H.40-49 837 08:42:00 18.37
2351 3848 WEBER SERGE FRA H.60-66 32 08:42:01 18.64
2352 798 STRUYS ERIC HOL H.50-59 301 08:42:02 18.69
2353 1214 CHRISTENSEN JOHN DAN H.40-49 838 08:42:06 18.04
2354 1540 BESSON JEAN-MARC FRA H.40-49 839 08:42:07 18.57
2355 639 STABE LEIF DAN H.40-49 840 08:42:08 18.89
2356 3628 GING Chistopher IRL H.40-49 841 08:42:10 18.59
2357 2964 SITNIKOV NIKOLAY UK H.18-29 310 08:42:16 18.69
2358 123 BOM LARS DAN H.50-59 302 08:42:16 18.87
2359 268 ARTZ PETER HOL H.40-49 842 08:42:18 19.07
2360 3639 PEETERS DANNY BEL H.30-39 827 08:42:21 18.28
2361 1000 SMID MAARTEN HOL H.18-29 311 08:42:26 18.61
2362 6970 HAAHR RASMUS DARRE DAN H.18-29 312 08:42:32 17.33
2363 1822 GRONDIN HERVE FRA H.30-39 828 08:42:35 18.78
2364 3364 BOSCH WALTER BEL H.50-59 303 08:42:35 18.59
2365 3688 LAURIER CHRISTOPHE BEL H.40-49 843 08:42:37 18.63
2366 4714 NIELSEN TOMMY DAN H.40-49 844 08:42:39 18.66
2367 8784 STEWART ANDRE ANG H.40-49 845 08:42:39 17.85
2368 2809 BRUINING MARTIN HOL H.30-39 829 08:42:40 18.87
2369 2915 BOILLAT HUGUETTE SUI F.35-49 23 08:42:42 18.25
2370 3549 ANDERSEN TONNY ULRIK DAN H.40-49 846 08:42:43 18.36
2371 3664 RAULT EMMANUEL FRA H.40-49 847 08:42:47 18.78
2372 4749 VERMEIRSCH KOEN BEL H.40-49 848 08:42:48 17.97
2373 3815 CASAUX-BIC J.MAURICE FRA H.50-59 304 08:43:04 18.69
2374 4565 STOFFELS JOHAN HOL H.60-66 33 08:43:06 18.49
2375 6448 GHYSEL SVEN BEL H.18-29 313 08:43:08 18.04
2376 802 VAN DER LANS JOOST HOL H.30-39 830 08:43:10 18.28
2377 1728 GOEGEBEUR TOM BEL H.30-39 831 08:43:11 18.88
2378 873 DALLE VINCENT BEL H.40-49 849 08:43:14 17.50
2379 8612 O BRIEN BARRY IRL H.30-39 832 08:43:20 18.28
2380 4012 MULDER PAUL HOL H.30-39 833 08:43:23 18.62
2381 6660 SORENSEN KURT DAN H.40-49 850 08:43:25 18.58
2382 8671 JESPER JENSEN DAN H.30-39 834 08:43:28 18.81
2383 8402 ESCAFFRE ALAIN FRA H.50-59 305 08:43:28 18.24
2384 1895 VAN DEN WOUWER DIRK BEL H.50-59 306 08:43:29 18.63
2385 4317 BOCCI GIANNI ITA H.40-49 851 08:43:30 18.57
2386 1178 REIMAR LARSEN KURT DAN H.50-59 307 08:43:31 17.98
2387 4118 ZIJSLING FRISO HOL H.30-39 835 08:43:32 18.51
2388 1177 MADSEN JOHANNES DAN H.30-39 836 08:43:38 18.45
2389 8783 VAN DER VEER JANNEKE HOL F.18-34 15 08:43:38 17.95
2390 2713 WIERSMA JAN HOL H.40-49 852 08:43:39 18.54
2391 3839 MAURO CHRISTOPHE FRA H.40-49 853 08:43:39 18.61
2392 338 PHILIPPE ROBERT FRA H.60-66 34 08:43:39 18.47
2393 9923 RABY PASCAL FRA H.30-39 837 08:43:40 18.63
2394 2767 VEERMAN GERRIT HOL H.30-39 838 08:43:43 18.46
2395 5998 NEUVEL NIELS HOL H.30-39 839 08:43:51 18.63
2396 7222 THEGEN KRISTIAN DAN H.40-49 854 08:43:53 18.46
2397 4997 YATES DAVID UK H.30-39 840 08:43:54 18.57
2398 6073 TORRES CABEZAS MANUEL ESP H.30-39 841 08:43:55 18.16
2399 3633 NIELSEN KIM DAN H.50-59 308 08:43:57 18.80
2400 7021 MERCADO HERRERA GREGORIO ESP H.40-49 855 08:43:58 18.39
2401 8496 LAVENT JOHAN BEL H.40-49 856 08:43:59 18.00
2402 6924 MATTHEW LONGBOTTOM ANG H.30-39 842 08:43:59 18.38
2403 1176 AMTOFT MIKKELSEN NIELS BO DAN H.40-49 857 08:44:01 18.38
2404 6995 MCCORMACK CONOR ISL H.30-39 843 08:44:03 18.45
2405 1491 MIGNON JACQUES BEL H.40-49 858 08:44:03 18.76
2406 3926 GILLARIN JEAN-MARC BEL H.50-59 309 08:44:07 18.73
2407 6175 GARCIA ALVAREZ DAVID JOSE ESP H.30-39 844 08:44:09 18.15
2408 421 DE BOER SANDER HOL H.18-29 314 08:44:10 18.73
2409 3902 BEAUPOIL JOEL FRA H.50-59 310 08:44:15 18.58
2410 2576 JENSEN CHRISTIAN KJAER DAN H.30-39 845 08:44:20 18.43
2411 5198 BOUTEVILLE FRANCK FRA H.40-49 859 08:44:24 18.50
2412 5707 NOELS ERIK BEL H.50-59 311 08:44:25 18.28
2413 6166 DE MAESSCHALCK KEVIN BEL H.18-29 315 08:44:26 18.84
2414 4143 DECKERS NIELS BEL H.18-29 316 08:44:27 18.38
2415 2173 SCHURING EELCO HOL H.50-59 312 08:44:27 17.85
2416 1569 BERTHELS KIM BEL H.30-39 846 08:44:28 17.83
2417 7964 MOELLER MORTEN DAN H.40-49 860 08:44:28 18.20
2418 7984 SCHELLEKENS ROEL HOL H.30-39 847 08:44:29 18.04
2419 6669 PAILLARD LAURENT FRA H.40-49 861 08:44:36 18.64
2420 6639 DE GRAAF JOHANNES BERNARDUS MARIA HOL H.50-59 313 08:44:39 18.16
2421 3921 MURRELL SIMON SUI H.30-39 848 08:44:43 18.29
2422 6248 VAN PANHUIS HENRY HOL H.30-39 849 08:44:44 18.45
2423 2904 PEDERSEN STEPHAN DAN H.30-39 850 08:44:46 18.33
2424 4929 KIIL BIRGITTE JUL DAN F.35-49 24 08:44:52 18.66
2425 1016 THOOLEN FRANK HOL H.50-59 314 08:44:53 18.83
2426 4928 KIIL JEPPE JUL DAN H.40-49 862 08:44:57 18.66
2427 7014 RAMONGASSIE ALAIN FRA H.40-49 863 08:44:58 18.19
2428 5371 POUW MARC HOL H.40-49 864 08:45:02 18.40
2429 4190 VAN DER WOUDE RAMON HOL H.40-49 865 08:45:17 18.12
2430 6649 BUELENS JOHAN BEL H.40-49 866 08:45:18 18.36
2431 6591 MICUS REINHARD ALL H.50-59 315 08:45:22 18.58
2432 4110 SNOEP MARTIJN HOL H.30-39 851 08:45:23 18.46
2433 5127 Hoogendoorn JAN HOL H.18-29 317 08:45:30 18.35
2434 7162 BINDERUP JAKOB DAN H.30-39 852 08:45:32 18.57
2435 2303 CICCARELLI LUIGI ANTONIO ITA H.40-49 867 08:45:35 18.40
2436 908 SEWALT COLIN HOL H.30-39 853 08:45:38 18.80
2437 7026 WILLEMS STEVE SUI H.30-39 854 08:45:43 18.06
2438 4470 KOEFOED SOERENSEN SOEREN DAN H.40-49 868 08:45:44 18.48
2439 7503 OUDART REMI FRA H.30-39 855 08:45:45 18.35
2440 5460 MUTSAERTS JORN HOL H.30-39 856 08:45:46 18.35
2441 1722 BRADSHAW DAVID ANG H.40-49 869 08:45:52 18.58
2442 8630 BOYE RASMUS DAN H.18-29 318 08:45:53 17.47
2443 7389 DOUGLAS HAMILTON ANG H.18-29 319 08:45:58 18.21
2444 6522 WYBO ERIC BEL H.40-49 870 08:46:02 18.10
2445 3687 JACOBSEN KIM DAN H.50-59 316 08:46:03 18.37
2446 6866 POULSEN RASMUS AARUP DAN H.18-29 320 08:46:04 18.11
2447 1956 RIVIERE STEPHANE FRA H.40-49 871 08:46:04 18.62
2448 692 VAN LAETHEM WILFRIED BEL H.40-49 872 08:46:07 18.01
2449 1188 HARDER FRANK DAN H.50-59 317 08:46:09 18.62
2450 6551 ENRICO VIANI ITA H.50-59 318 08:46:10 18.34
2451 890 SERGEANT GREGORY SUI H.30-39 857 08:46:14 18.12
2452 5265 GRUYAERT CHRIS BEL H.40-49 873 08:46:19 18.28
2453 8077 MOOIJER KEES HOL H.50-59 319 08:46:25 18.53
2454 6496 MEGENS FRANS HOL H.40-49 874 08:46:26 18.22
2455 3390 HANNES KEVIN BEL H.18-29 321 08:46:26 18.17
2456 7890 DAVIS RICHARD ANG H.40-49 875 08:46:28 18.59
2457 2273 VAN CALKER RIENK HOL H.40-49 876 08:46:28 18.00
2458 7932 GACHE PHILIPPE FRA H.50-59 320 08:46:41 18.43
2459 4160 VAN DEN BERGH DIANE BEL F.35-49 25 08:46:45 18.27
2460 4982 CRICKMORE COLIN UK H.40-49 877 08:46:46 18.57
2461 740 VAN NULAND SANDER HOL H.30-39 858 08:46:48 18.63
2462 404 OOSTERBAAN KEVIN HOL H.30-39 859 08:46:48 18.30
2463 1100 LYNGERAA JACOB DAN H.40-49 878 08:46:51 18.63
2464 3339 SECHER LARS DAN H.30-39 860 08:46:52 18.06
2465 8636 KOOPMANS DANIEL HOL H.40-49 879 08:46:56 17.93
2466 5853 QUEW RUSSELL ANG H.40-49 880 08:46:58 18.30
2467 8755 ROBINSON AARON ANG H.40-49 881 08:46:59 18.48
2468 3667 MICHEL FRANK ALL H.50-59 321 08:46:59 18.68
2469 8721 LINDHARDT BO DAN H.50-59 322 08:47:05 18.54
2470 5748 POIROT HUBERT FRA H.60-66 35 08:47:06 18.29
2471 6090 DUNPHY FERGUS IRL H.40-49 882 08:47:06 18.40
2472 1475 NYS JO BEL H.40-49 883 08:47:10 18.37
2473 2426 COREELMONT BAS HOL H.40-49 884 08:47:10 17.67
2474 2754 SMITS WILLEM-JAN HOL H.18-29 322 08:47:12 18.20
2475 1892 DEFERM SAM BEL H.30-39 861 08:47:12 18.71
2476 1868 FURBANK KEITH AFR H.18-29 323 08:47:14 18.72
2477 1474 HANSSENS JORIS BEL H.50-59 323 08:47:14 18.37
2478 4351 VAN LENTEREN CAMIEL HOL H.40-49 885 08:47:16 18.33
2479 1809 FURBANK PAUL AFR H.50-59 324 08:47:17 18.72
2480 690 MELLEMA CARLA HOL F.35-49 26 08:47:19 18.37
2481 2261 ZANDVLIET RUUD HOL H.30-39 862 08:47:19 18.57
2482 4082 GORIS MARC BEL H.50-59 325 08:47:19 18.24
2483 1351 COLLIER JENNIFER AUS F.18-34 16 08:47:21 16.82
2484 8404 SAVOURE ANDRÉ FRA H.60-66 36 08:47:22 18.56
2485 1390 Christophersen DENIS DAN H.40-49 886 08:47:26 18.07
2486 7776 DE HAAN WILLEM HOL H.30-39 863 08:47:35 18.42
2487 5705 VAN DEN WOUWER GERT BEL H.50-59 326 08:47:37 18.28
2488 976 JENSEN CARSTEN DAN H.50-59 327 08:47:39 17.95
2489 7129 THEGEN HENNING DAN H.50-59 328 08:47:45 18.33
2490 3154 HVIRVELKAER UFFE DAN H.40-49 887 08:47:46 18.03
2491 8419 WOODWARD ANDREW FRA H.50-59 329 08:47:46 18.46
2492 5725 DYHRMAN PER DAN H.40-49 888 08:47:47 18.36
2493 449 HETTERSCHEID RIK HOL H.30-39 864 08:47:48 18.68
2494 5965 JIPPES NYNKE HOL F.35-49 27 08:47:54 18.18
2495 4495 NIELSEN CARSTEN DAN H.40-49 889 08:47:57 18.69
2496 7048 LEMSTRA MARK HOL H.30-39 865 08:48:04 17.72
2497 3130 KULD MARTIN DAN H.30-39 866 08:48:15 18.32
2498 4182 MEULMEESTER ERIK HOL H.30-39 867 08:48:24 18.34
2499 146 HILL GRAHAM UK H.40-49 890 08:48:26 18.66
2500 4718 WILS ANDERS DAN H.18-29 324 08:48:27 18.30
2501 6934 JENSEN PETER LINDUM DAN H.50-59 330 08:48:29 18.33
2502 2654 ARNOLS JOS BEL H.60-66 37 08:48:30 18.38
2503 8790 RACHEL BOWIE NOU F.35-49 28 08:48:34 18.01
2504 8221 FARMER ALLAN ANG H.30-39 868 08:48:35 18.00
2505 6760 RICARD SUGRAñES DIAZ ESP H.40-49 891 08:48:37 18.27
2506 4852 FUNDER MATHIAS LOEVSTAD DAN H.30-39 869 08:48:40 17.71
2507 3641 MERRIMAN MARK ANG H.50-59 331 08:48:41 18.61
2508 3473 CHRISTIAENS GERRY BEL H.30-39 870 08:48:47 18.28
2509 761 WICHELO SANDER HOL H.30-39 871 08:48:47 18.52
2510 5264 BAKKER JOOST HOL H.40-49 892 08:48:47 18.30
2511 1215 BREMHOLM MARTIN DAN H.30-39 872 08:48:48 17.79
2512 8013 HOCHHOLZER GERHARD ALL H.40-49 893 08:48:49 18.13
2513 8862 CALVY STEWART ANG H.40-49 894 08:48:55 18.62
2514 3315 NIELSEN LARS DAN H.50-59 332 08:48:59 18.07
2515 1496 DE GRAEVE NIELS BEL H.18-29 325 08:48:59 18.59
2516 327 ZOULIM FABIEN FRA H.50-59 333 08:48:59 18.57
2517 1546 MELLEMGARD NIELS FREDERIK DAN H.30-39 873 08:49:05 18.53
2518 1101 NISSEN LASSE DAN H.50-59 334 08:49:07 18.45
2519 2032 KNIGHT ANDREW UK H.30-39 874 08:49:13 18.55
2520 8722 CAPRASSE BENOIT BEL H.30-39 875 08:49:13 18.48
2521 2644 VON BARNER MORTEN CHRISTIAN DAN H.30-39 876 08:49:13 18.34
2522 3285 ALLEN ROB UK H.30-39 877 08:49:14 16.95
2523 3718 PALLARES VILA SERGI ESP H.50-59 335 08:49:24 18.32
2524 5245 VAN HENTEN GER HOL H.50-59 336 08:49:30 18.42
2525 4770 SVENDSEN KIM B. DAN H.30-39 878 08:49:31 18.07
2526 1604 DUMESNIL ARNAUD FRA H.18-29 326 08:49:32 18.45
2527 6728 HISCOX MARK ANG H.40-49 895 08:49:35 18.49
2528 3135 HABERL JURGEN DAN H.40-49 896 08:49:35 18.57
2529 2536 ROTA MATTEO SUI H.30-39 879 08:49:35 18.20
2530 8150 SIMON STEEN-PETERSEN DAN H.40-49 897 08:49:40 18.51
2531 3129 RASMUSSEN CHRISTIAN HOVE DAN H.30-39 880 08:49:41 18.27
2532 3076 KJAER BJARNE DAN H.60-66 38 08:49:42 18.55
2533 5006 BLOOM DAMIAN UK H.40-49 898 08:49:50 18.31
2534 3695 VAN GOETHEM KRIS BEL H.30-39 881 08:49:51 18.05
2535 2884 YORK ADAM HON H.30-39 882 08:49:52 18.47
2536 665 DOOMERNIK KAREL HOL H.50-59 337 08:49:53 18.31
2537 6520 DE PLUKKER PETER BEL H.50-59 338 08:49:53 18.19
2538 1039 LAVASTRE JACQUES FRA H.40-49 899 08:49:53 17.62
2539 7140 MARIO PEREZ LORENZO ESP H.30-39 883 08:49:56 18.38
2540 1529 OGORZALEK JAN FRA H.30-39 884 08:49:56 18.49
2541 7090 MARIN RECHE JOSE MANUEL ESP H.60-66 39 08:49:57 18.38
2542 5729 SEMINCK DIEGO BEL H.18-29 327 08:50:00 18.34
2543 5244 VAN HENTEN JEFFREY HOL H.18-29 328 08:50:01 18.42
2544 2937 BENTLEY JEREMY UK H.40-49 900 08:50:04 18.64
2545 5847 CUSTODIO SANCHO PELECHA ESP H.40-49 901 08:50:07 18.40
2546 834 DE BRUIN RALF HOL H.30-39 885 08:50:07 17.89
2547 2873 YEO NIGEL UK H.40-49 902 08:50:08 17.86
2548 8130 VAN WIJHE IVO HOL H.30-39 886 08:50:09 18.34
2549 6083 VAN KERCKHOVE JORIS BEL H.30-39 887 08:50:12 18.07
2550 5160 SAINTIER BENEDICTE FRA F.35-49 29 08:50:14 18.23
2551 7833 CARO JUAN ESP H.40-49 903 08:50:15 18.12
2552 7674 HUW ROBERTS ANG H.40-49 904 08:50:17 18.14
2553 8881 BERG LENNART SUE H.50-59 339 08:50:19 18.59
2554 2891 WIRTH STEVEN UK H.40-49 905 08:50:26 17.81
2555 6196 ELDER ANDREW ANG H.40-49 906 08:50:27 18.39
2556 8227 SOUTHERN OLIVER ANG H.18-29 329 08:50:31 18.17
2557 1462 MADET FREDERIC FRA H.30-39 888 08:50:32 18.68
2558 4132 TRAPPENBURG JAAP HOL H.30-39 889 08:50:32 17.80
2559 7883 SERGIO OTTONELLO ITA H.30-39 890 08:50:34 18.58
2560 4590 BAARDA GERRIT HOL H.40-49 907 08:50:39 18.33
2561 2010 TATE JAMES UK H.30-39 891 08:50:40 18.48
2562 1213 POULSEN KARL DAN H.50-59 340 08:50:42 18.24
2563 496 SNIJDER SANDER HOL H.18-29 330 08:50:47 18.39
2564 6250 BAKER ANDREW ECO H.40-49 908 08:50:47 18.15
2565 4757 HOEJVANG KASPER DAN H.18-29 331 08:50:48 18.25
2566 6837 CARLOS CORTES GARMENDIA ESP H.40-49 909 08:50:52 18.52
2567 1352 ANCART JEAN PIERRE BEL H.50-59 341 08:50:52 18.29
2568 5700 CELIS FRANK BEL H.40-49 910 08:50:57 18.46
2569 2344 CIAMBALLI PAOLO ITA H.40-49 911 08:50:58 18.11
2570 2941 PINCHEN MICHAEL FRA H.50-59 342 08:50:58 18.39
2571 5383 DE VRIES PAUL HOL H.50-59 343 08:50:59 17.92
2572 4436 JOHANSEN ALLAN DAN H.40-49 912 08:51:02 17.57
2573 1531 BOURGEOIS JACKY FRA H.60-66 40 08:51:04 18.37
2574 8064 GALLARDO JOSE LUIS ESP H.50-59 344 08:51:08 18.35
2575 6227 VAN DER PLAS SEAN HOL H.18-29 332 08:51:08 18.47
2576 8167 DIVOY YVES BEL H.40-49 913 08:51:09 18.39
2577 6021 RIGBY DANIEL ANG H.30-39 892 08:51:12 18.30
2578 6026 RICHARD NEIL COL H.50-59 345 08:51:19 18.13
2579 6569 WILLEMSEN JORGEN HOL H.18-29 333 08:51:19 18.25
2580 654 JACOBS WILLIAM HOL H.30-39 893 08:51:21 18.27
2581 7327 SANCHIS DIAZ TOMAS ESP H.40-49 914 08:51:21 18.22
2582 930 PORREZ DIEGO BEL H.30-39 894 08:51:29 18.57
2583 3594 JENSEN SOREN DAN H.30-39 895 08:51:31 18.29
2584 274 FRAISSINET NICOLAS FRA H.40-49 915 08:51:32 18.62
2585 7596 DELATTRE ERIC FRA H.40-49 916 08:51:32 18.43
2586 2341 COVIELLO EMILIO ITA H.40-49 917 08:51:39 18.08
2587 1904 REYSERHOVE KOEN BEL H.40-49 918 08:51:40 17.17
2588 7625 ROELEN HENNY HOL H.50-59 346 08:51:41 18.53
2589 6439 VAN VAERENBERGH PIET BEL H.50-59 347 08:51:42 18.17
2590 2497 MATHIASEN FRANK DAN H.40-49 919 08:51:43 18.37
2591 1907 VANCOILLIE PATRICK BEL H.50-59 348 08:51:44 17.17
2592 5562 BUYSE YVES BEL H.30-39 896 08:51:52 18.38
2593 2172 VERBEECK DAVID BEL H.40-49 920 08:51:54 18.08
2594 5361 BLOCKEEL SVEN BEL H.30-39 897 08:51:56 18.32
2595 6153 LAFORGUE JEAN MICHEL FRA H.40-49 921 08:52:00 18.20
2596 6384 BAZIN DIDIER FRA H.50-59 349 08:52:00 17.90
2597 6262 BADIA SANCHEZ JOSE ESP H.50-59 350 08:52:05 18.07
2598 6215 ARNAL CAMPOS CARLOS ESP H.50-59 351 08:52:05 18.07
2599 2447 ENEVOLDSEN MORTEN DAN H.30-39 898 08:52:06 18.42
2600 6975 VAN ZANTEN MARC HOL H.40-49 922 08:52:08 18.27
2601 7752 INGRAM PAUL ANG H.40-49 923 08:52:10 18.26
2602 3211 WALKER DUNCAN UK H.30-39 899 08:52:22 18.63
2603 7668 LARMAN MARIANO ESP H.50-59 352 08:52:25 18.01
2604 5818 VAN DE VELDE JAN BEL H.40-49 924 08:52:26 18.02
2605 3897 GUINGAND BRUNO FRA H.50-59 353 08:52:26 18.00
2606 545 REGAZZINI MIRKO ITA H.40-49 925 08:52:27 18.37
2607 8095 TOFFOLETTI MATTHIEU FRA H.18-29 334 08:52:29 18.21
2608 3291 COSGROVE NEIL ANG H.30-39 900 08:52:30 18.56
2609 3084 PEDERSEN KURT TORNBJERG DAN H.50-59 354 08:52:31 18.22
2610 4731 HARRIT JEPPE DAN H.40-49 926 08:52:33 18.36
2611 4460 VOSS GLENN DAN H.18-29 335 08:52:34 18.22
2612 4236 HUIJBREGTS MARC HOL H.40-49 927 08:52:38 18.23
2613 5050 ISSARTEL LAURENT FRA H.30-39 901 08:52:41 17.91
2614 2346 MUSUMECI SILVANO ITA H.40-49 928 08:52:42 18.08
2615 3431 VAN LERBERGHE JELLE BEL H.30-39 902 08:52:49 18.41
2616 6601 EERDEN, VAN DER FOLKERT HOL H.40-49 929 08:52:52 18.02
2617 141 HARRIS PAUL UK H.40-49 930 08:52:54 18.70
2618 5727 AERTS MARIO BEL H.40-49 931 08:52:56 17.98
2619 3673 DELVAEL PHILIPPE BEL H.50-59 355 08:52:59 17.88
2620 2793 Scheepbouwer FRANK HOL H.18-29 336 08:53:03 16.53
2621 4072 PRONK BAS HOL H.30-39 903 08:53:07 17.52
2622 1918 TABARET DOMINIQUE FRA H.60-66 41 08:53:11 19.58
2623 6422 WILS DIRK BEL H.40-49 932 08:53:20 18.41
2624 6339 LYCK LASSE DAN H.40-49 933 08:53:21 18.13
2625 2149 JEURIS BEN BEL H.30-39 904 08:53:23 18.31
2626 7898 BROCHIER CHRISTOPHE FRA H.40-49 934 08:53:26 18.26
2627 7800 TIM KRAAL HOL H.18-29 337 08:53:28 18.36
2628 7246 ANDONI MAYO AZCARATE ESP H.18-29 338 08:53:30 18.11
2629 8261 COBUSSEN REIN HOL H.30-39 905 08:53:30 17.63
2630 3865 MAZUIR ERIC FRA H.40-49 935 08:53:31 17.99
2631 2347 FUMAGALLI MAURIZIO ITA H.50-59 356 08:53:36 18.08
2632 8308 VERSCHUEREN ERIC BEL H.50-59 357 08:53:36 18.57
2633 1166 CHRISTENSEN FLEMMING DAN H.40-49 936 08:53:37 19.56
2634 6405 BARON PETER NOU H.50-59 358 08:53:37 18.21
2635 462 BRUSSE NIELS HOL H.30-39 906 08:53:40 18.04
2636 3510 ANDERSEN BJOERN KROG DAN H.40-49 937 08:53:42 18.24
2637 1193 MILO JENS CHRISTIAN DAN H.40-49 938 08:53:44 17.59
2638 8043 SAVOURE ARNAUD FRA H.40-49 939 08:53:51 18.21
2639 8136 ROSENDAHL FINN DAN H.50-59 359 08:53:51 18.16
2640 6176 URBANO DELGADO NANDO ESP H.40-49 940 08:53:56 17.85
2641 7236 DAVID LOPEZ GUERRERO ESP H.40-49 941 08:54:00 18.30
2642 4122 BOOTS ERIK JAN HOL H.40-49 942 08:54:01 18.19
2643 8845 CRUICKSHANK ANDREW ANG H.40-49 943 08:54:05 18.27
2644 978 PEDERSEN HASSE DAN H.50-59 360 08:54:13 18.13
2645 3126 HANSEN JESPER THEIL DAN H.40-49 944 08:54:14 18.20
2646 1738 ALLEWELL RICHARD ANG H.40-49 945 08:54:14 17.79
2647 1182 MADSEN ANDERS JESS DAN H.30-39 907 08:54:17 17.59
2648 4715 POULSEN JAN LOHMANN DAN H.50-59 361 08:54:19 18.28
2649 1552 KEARNEY DANIEL SUI H.30-39 908 08:54:20 18.41
2650 7885 ARAGONCILLO OSUNA DAVID ESP H.40-49 946 08:54:20 18.10
2651 2923 REMACLE FRANCIS FRA H.50-59 362 08:54:20 18.18
2652 703 KIMENAI JOHN HOL H.18-29 339 08:54:21 17.00
2653 7455 VANHOUDT JOHAN BEL H.50-59 363 08:54:22 17.62
2654 1664 TRANEKJER MICHAEL DAN H.40-49 947 08:54:22 18.29
2655 5769 VAN DEN BRANDE JEF BEL H.50-59 364 08:54:23 18.02
2656 2763 CHIALASTRI HANS HOL H.50-59 365 08:54:25 18.37
2657 3655 JALA IRIGOYEN HECTOR ESP H.40-49 948 08:54:25 18.26
2658 3702 CASTRO SABORIDO LUIS ESP H.50-59 366 08:54:25 18.26
2659 3691 DIXON DAVID ANG H.50-59 367 08:54:26 18.22
2660 8513 BARTOLINI MARCO ITA H.50-59 368 08:54:27 17.91
2661 5925 WILSON PETER ANG H.40-49 949 08:54:28 18.38
2662 4247 SCHUBERT PAUL HOL H.30-39 909 08:54:29 17.60
2663 8005 JACCO VAN RHEENEN HOL H.30-39 910 08:54:30 17.04
2664 7983 KIFFER NICOLAS FRA H.50-59 369 08:54:35 18.30
2665 4234 DE KOK CASPAR HOL H.40-49 950 08:54:36 18.00
2666 5193 ANDERSEN TOMMY DAN H.30-39 911 08:54:38 18.13
2667 3807 FROPPIER DENIS FRA H.40-49 951 08:54:39 17.85
2668 3266 FRANCISCO BRUNO UK H.40-49 952 08:54:41 18.15
2669 3837 COLLARD PATRICK FRA H.60-66 42 08:54:44 18.36
2670 2571 RONHOLT PEDER DAN H.30-39 912 08:54:45 18.17
2671 6352 VAN DEN BROEK RENE HOL H.40-49 953 08:54:46 17.00
2672 6043 KJELDGAARD KJELD DAN H.40-49 954 08:54:51 18.01
2673 2029 BROWN ANDREW UK H.30-39 913 08:54:54 18.29
2674 3428 VANBELLE RONNY BEL H.50-59 370 08:54:57 18.23
2675 4112 VAN DEN BUIJS BRAM HOL H.30-39 914 08:54:58 17.80
2676 5642 BENAJMIN CARRASCO ARENAS ESP H.40-49 955 08:54:58 18.14
2677 6443 MARTINEZ VAGOGNE ALEJANDRO ESP H.40-49 956 08:54:59 18.14
2678 7156 CHAILLEUX YANN ESP H.40-49 957 08:54:59 18.14
2679 3117 BJOERLUND CARSTEN DAN H.50-59 371 08:55:00 18.34
2680 1778 FITZSIMONS JULIAN ANG H.40-49 958 08:55:07 18.18
2681 6982 LANSSENS FERDY BEL H.40-49 959 08:55:10 18.45
2682 5192 KLIT FREDDY DAN H.50-59 372 08:55:10 17.88
2683 7462 VAN DER HORST KLAAS HOL H.40-49 960 08:55:11 18.33
2684 2008 MORGAN DAVID UK H.50-59 373 08:55:13 17.87
2685 5830 ABILDSKOV CAMILLA DAN F.18-34 17 08:55:13 17.85
2686 2319 BOLZANI MARCO ITA H.40-49 961 08:55:14 18.30
2687 3479 SCHUT WILLEM HOL H.50-59 374 08:55:16 18.29
2688 3650 BOGHAERT FRANKY FRA H.50-59 375 08:55:18 18.34
2689 4349 WEIJS JAN HOL H.30-39 915 08:55:22 18.14
2690 7588 CARO PRADOS MANEL ESP H.40-49 962 08:55:22 18.12
2691 8860 CALVY ANDREW ANG H.40-49 963 08:55:26 18.40
2692 5850 WALZ NORA ALL F.35-49 30 08:55:28 17.64
2693 8021 GOETHALS BERT BEL H.30-39 916 08:55:39 17.51
2694 4423 MAGNESS DENNIS NOU H.60-66 43 08:55:44 18.15
2695 8206 ADIEGO RODRIGUEZ JOSE ANTONIO ESP H.30-39 917 08:55:49 17.86
2696 3457 O HARA LAWRENCE ANG H.40-49 964 08:55:50 17.69
2697 1186 GILLELADEN CHRISTIAN DAN H.40-49 965 08:55:52 17.42
2698 7775 VEERMAN HENDRIK HOL H.30-39 918 08:55:57 18.16
2699 8177 CLANCY DARRYL IRL H.30-39 919 08:55:58 18.39
2700 4719 HANSEN BJARNE DAN H.50-59 376 08:55:58 17.93
2701 8570 BILLINGTON ADRIAN ANG H.50-59 377 08:56:06 18.39
2702 6998 GRIFFEN STEPHEN ALL H.40-49 966 08:56:06 18.10
2703 3269 TREGLOWN SIMON UK H.40-49 967 08:56:07 18.31
2704 2808 POIESZ RICHARD HOL H.40-49 968 08:56:08 17.81
2705 7635 CREPIN ETIENNE FRA H.50-59 378 08:56:08 18.12
2706 3001 LYNGAA SOREN DAN H.40-49 969 08:56:11 17.73
2707 8409 ANDERSSON SIMON DAN H.30-39 920 08:56:11 17.98
2708 4547 VAN LAERE SERGE BEL H.40-49 970 08:56:12 18.13
2709 8127 SCHOLTES CHRISTIAN BEL H.50-59 379 08:56:16 17.83
2710 5191 BOESEN BJARNE DAN H.40-49 971 08:56:18 17.92
2711 4018 VAN KAMPEN JAN WILLEM HOL H.18-29 340 08:56:20 16.52
2712 474 REIMER BERNARD HOL H.30-39 921 08:56:24 18.21
2713 7023 VICENTE MIRA VERDU ESP H.50-59 380 08:56:28 17.92
2714 2241 HEUTINK HUBERT HOL H.40-49 972 08:56:33 17.66
2715 5535 DIEGO CARRERA BLANCO ESP H.30-39 922 08:56:33 18.14
2716 6478 KOKX VINCENT HOL H.40-49 973 08:56:42 17.92
2717 7309 GABRIEL REMI FRA H.30-39 923 08:56:42 17.78
2718 3824 SOULE DAVID FRA H.40-49 974 08:56:45 18.27
2719 1060 JOHANSEN CLAUS DAN H.40-49 975 08:56:47 17.92
2720 4703 GRYL MARTIN DAN H.30-39 924 08:56:48 18.31
2721 5828 PRUDENCIO DEL RIO JIMENEZ ESP H.40-49 976 08:56:48 17.90
2722 971 RUTHERFORD DAVID UK H.67et+ 4 08:56:52 18.03
2723 7470 WALES GEOFFREY FRA H.40-49 977 08:56:53 18.30
2724 3501 CREDLAND TOM ANG H.30-39 925 08:56:57 18.10
2725 2061 VAN IERLAND FRANCISCHS HOL H.60-66 44 08:56:58 17.83
2726 6832 LECLAIR FRANCK FRA H.40-49 978 08:56:59 17.85
2727 760 TEERINK SJOERD HOL H.40-49 979 08:57:00 18.15
2728 2387 HOMMERS BARRY HOL H.30-39 926 08:57:00 17.78
2729 3951 NISSEN PETER DAN H.40-49 980 08:57:00 17.30
2730 4591 MOM DONNY HOL H.30-39 927 08:57:09 17.26
2731 5534 LAMBRECHT NORBERT ALL H.50-59 381 08:57:11 17.62
2732 5492 Nussbaummuller HARALD AUT H.30-39 928 08:57:11 18.35
2733 1648 CATTRYSSE JEFFREY BEL H.30-39 929 08:57:13 18.29
2734 3089 VENDELBOE LARS DAN H.30-39 930 08:57:15 17.62
2735 8189 VAN DER KUIJL ROLF HOL H.40-49 981 08:57:23 17.76
2736 1145 SUMMERS ANTHONY UK H.50-59 382 08:57:27 18.12
2737 8613 ATTILA ANTAL HON H.40-49 982 08:57:29 17.96
2738 1763 POPPE FILIP BEL H.40-49 983 08:57:32 17.96
2739 3152 JENSEN TORBEN BANG DAN H.50-59 383 08:57:33 18.11
2740 6672 CIARON WALTON ANG H.30-39 931 08:57:35 18.09
2741 2038 GUITTON PASCAL FRA H.40-49 984 08:57:37 17.99
2742 4788 HANSEN KENNETH SKOVSBO DAN H.40-49 985 08:57:39 18.16
2743 285 LAMOUR GILLES FRA H.60-66 45 08:57:45 18.18
2744 6743 BARUGOLA BERNARD FRA H.40-49 986 08:57:46 17.67
2745 6838 JOUGLARD DENIS FRA H.50-59 384 08:57:48 17.67
2746 3681 COLEMAN JOSEPH ANG H.30-39 932 08:57:48 18.00
2747 1236 VAN EWIJK PAUL HOL H.40-49 987 08:57:50 18.20
2748 3912 LAGADEC YVES FRA H.50-59 385 08:57:52 18.15
2749 7680 MICHEL FLORENT FRA H.40-49 988 08:57:54 19.40
2750 4532 MEUSSEN PATRICK HOL H.30-39 933 08:57:55 18.19
2751 2140 VOS ROB HOL H.30-39 934 08:57:58 17.60
2752 5719 PARKER IAN ANG H.40-49 989 08:57:59 17.98
2753 6184 GYLVIN SIMON TRANHOLM DAN H.30-39 935 08:57:59 18.09
2754 6914 RENSHAW STEPHEN UK H.40-49 990 08:58:00 18.15
2755 3731 WINTHER STEEN DAN H.50-59 386 08:58:03 17.69
2756 4003 ROELOFSEN ANNE HOL F.35-49 31 08:58:07 17.86
2757 3733 MARIN ROGERO JUAN ESP H.40-49 991 08:58:07 17.92
2758 1149 SMYTH BENEDICT UK H.40-49 992 08:58:09 17.63
2759 5035 HENIGER FLORENS HOL H.40-49 993 08:58:10 18.15
2760 8640 MEINER JENSEN PETER DAN H.60-66 46 08:58:12 18.09
2761 1596 CERNEAU CHRISTIAN FRA H.50-59 387 08:58:24 18.15
2762 3913 VIVE PER SLENTE DAN H.40-49 994 08:58:27 17.86
2763 1582 VAN DEN KIEBOOM MAT HOL H.50-59 388 08:58:33 18.29
2764 7288 BELCHER JUSTIN ANG H.40-49 995 08:58:34 18.13
2765 3618 ELGAARD JORGEN DAN H.60-66 47 08:58:35 17.73
2766 1440 RADET LAURENT FRA H.50-59 389 08:58:39 18.24
2767 2356 SOMASCHINI FABIO ITA H.40-49 996 08:58:42 18.21
2768 8283 JOSEP LLUIS ESTRADA GUILLEM ESP H.30-39 936 08:58:42 17.53
2769 5898 VAN DER MEER PIETER HOL H.40-49 997 08:58:45 17.41
2770 6500 GORMAN ADAM FRA H.30-39 937 08:58:51 18.10
2771 1932 TANNE ALAIN FRA H.50-59 390 08:58:54 18.23
2772 1047 NICOLAU ALAIN DERUDET YVES FRA Tandem 1 08:58:55 18.45
2773 5709 LARSEN MORTEN DAN H.30-39 938 08:58:58 17.92
2774 2425 DUISENBERG DANIEL HOL H.30-39 939 08:59:01 17.91
2775 5835 CHAMBERS JACK ANG H.18-29 341 08:59:02 17.95
2776 5566 VIDAL DELTELL FRANCISCO ESP H.30-39 940 08:59:05 17.81
2777 7519 JENSEN POUL E. MAL H.50-59 391 08:59:05 17.81
2778 5073 LEMAIRE LUC BEL H.50-59 392 08:59:07 18.06
2779 2811 PAELINCK OMER BEL H.50-59 393 08:59:09 18.01
2780 1629 MORICE JEAN JACQUES FRA H.50-59 394 08:59:17 17.96
2781 7193 LOPEZ LOPEZ FRANCISCO ESP H.30-39 941 08:59:18 18.01
2782 7387 HANSEN CLAUS DAN H.30-39 942 08:59:19 17.81
2783 1043 VAN EXEL IVO BEL H.50-59 395 08:59:19 18.20
2784 7062 SENANT ANTOINE FRA H.60-66 48 08:59:20 17.85
2785 7239 SCHWARZ ALEXANDER ALL H.40-49 998 08:59:27 18.01
2786 4222 Elderenbosch BART HOL H.18-29 342 08:59:30 17.76
2787 3615 CONNOLLY SEAN IRL H.40-49 999 08:59:30 17.88
2788 1430 SEVILLANO BENITO FRANCISCO JAVIER ESP H.50-59 396 08:59:32 18.04
2789 7612 COLOMA LóPEZ PABLO ESP H.40-49 1000 08:59:32 18.04
2790 2722 CARRETTE WIM BEL H.40-49 1001 08:59:36 17.29
2791 6144 BOONE PASCAL BEL H.40-49 1002 08:59:39 17.95
2792 7382 DESMET SIMON BEL H.18-29 343 08:59:39 17.82
2793 4263 BATTAGLIA JURI ITA H.30-39 943 08:59:41 17.44
2794 6940 MARK JOHNSTON ANG H.40-49 1003 08:59:42 17.83
2795 4267 MELCHIONI PAOLO ITA H.30-39 944 08:59:43 17.44
2796 2452 JEPSEN LARS ODDER DAN H.40-49 1004 08:59:45 18.11
2797 1866 CALDENHOVEN JUERGEN ALL H.40-49 1005 08:59:48 18.10
2798 7348 VAN DEN DOBBELSTEEN DIELS HOL H.40-49 1006 08:59:50 17.92
2799 892 ODEURS DAVID BEL H.40-49 1007 08:59:53 18.12
2800 2345 COLOMBO MARIANO ITA H.40-49 1008 08:59:53 17.86
2801 1211 DOMINO SOEREN DAN H.30-39 945 08:59:53 17.67
2802 7277 FORSTER MICHELLE ANG F.35-49 32 08:59:56 17.76
2803 5389 GARCIA JOSE RAMON ESP H.50-59 397 08:59:57 17.70
2804 4124 BAERT BRUNO BEL H.40-49 1009 08:59:59 17.70
2805 664 CORNELISSEN WIM HOL H.50-59 398 09:00:00 17.96
2806 7990 KRIS DILLEN BEL H.40-49 1010 09:00:02 17.90
2807 572 CHRISTENSEN BO DAN H.50-59 399 09:00:03 17.68
2808 8661 BEEK VAN EDWIN HOL H.40-49 1011 09:00:05 18.11
2809 2233 VAN DER VLIST BAS HOL H.30-39 946 09:00:06 18.14
2810 1750 ERIKSEN OLE DAN H.40-49 1012 09:00:06 18.23
2811 574 KAAG TORBEN DAN H.50-59 400 09:00:07 17.68
2812 3195 RANDLE PAUL UK H.40-49 1013 09:00:10 17.88
2813 3305 WAGNER JANN DAN H.50-59 401 09:00:12 17.77
2814 4479 POULSEN HENRIK DAN H.40-49 1014 09:00:14 17.87
2815 8142 CROMPTON JONATHON ANG H.40-49 1015 09:00:15 17.76
2816 4716 BONDERUP MICHAEL DAN H.30-39 947 09:00:18 17.79
2817 2279 OOSTVOGELS JAN HOL H.50-59 402 09:00:19 18.05
2818 706 PEETERS FRANK BEL H.40-49 1016 09:00:24 17.60
2819 4688 RASMUSSEN HANS ERIK DAN H.50-59 403 09:00:25 17.65
2820 6322 REYMOND TIMOTHEE SUI H.18-29 344 09:00:25 17.26
2821 3574 MARIN JOHN SUE H.40-49 1017 09:00:30 17.70
2822 4185 TWILT LIM HOL H.30-39 948 09:00:31 17.77
2823 3044 CHRISTENS PETER FALCK DAN H.40-49 1018 09:00:33 18.03
2824 6060 STEWART BILL ANG H.50-59 404 09:00:34 17.82
2825 2343 TAMBURINO ANIELLO ITA H.40-49 1019 09:00:38 17.86
2826 6498 VANDENHEEDE GEERT BEL H.50-59 405 09:00:38 18.06
2827 524 PIATTI GIANLUCA ITA H.40-49 1020 09:00:41 18.34
2828 6149 OOMS MAARTEN ANG H.40-49 1021 09:00:41 18.06
2829 410 GILJAM HERBERT HOL H.40-49 1022 09:00:48 18.12
2830 3987 NALIN PIERLUIGI ITA H.50-59 406 09:00:49 17.85
2831 4707 PEDERSEN NIELS HOLME DAN H.50-59 407 09:00:49 18.02
2832 8582 TILBURY WILLIAM ANG H.40-49 1023 09:00:50 18.10
2833 403 DIERICK GERARD HOL H.40-49 1024 09:00:55 18.13
2834 5634 SOUTHAN DUNCAN ANG H.40-49 1025 09:01:03 18.13
2835 8051 HOLST PEDER SUE H.50-59 408 09:01:04 16.80
2836 2718 SARCHOSAKIS VASILIS HOL H.40-49 1026 09:01:06 17.93
2837 2580 FROEDSTRUP LARS DAN H.18-29 345 09:01:06 18.02
2838 3729 WALTHER MICHAEL FRA H.40-49 1027 09:01:08 17.47
2839 7905 GAITET STEPHANE FRA H.30-39 949 09:01:08 18.02
2840 521 STIVARI FLAVIA ITA F.18-34 18 09:01:16 17.88
2841 7181 DILLON RICHARD ANG H.40-49 1028 09:01:16 18.18
2842 4141 BEUNEN RALPH HOL H.30-39 950 09:01:20 17.99
2843 680 VAN GILS PERRY HOL H.40-49 1029 09:01:21 18.16
2844 5666 IBAN RETOLAZA ESP H.40-49 1030 09:01:23 17.97
2845 3246 COOKE DANIEL UK H.40-49 1031 09:01:25 17.42
2846 4745 GLYN EVANS ANG H.40-49 1032 09:01:25 17.70
2847 4478 LIST TERJE LAURBERG LYNGOE DAN H.40-49 1033 09:01:30 17.75
2848 3207 WALWORK RICH UK H.40-49 1034 09:01:34 18.04
2849 5010 PEARSON LAURENCE UK H.50-59 409 09:01:35 17.91
2850 1080 KORSTGAARD TORBEN ALSTED DAN H.50-59 410 09:01:39 17.66
2851 6226 CHARLIER VINCENT FRA H.30-39 951 09:01:40 17.63
2852 3461 MALIK TARIQ ANG H.40-49 1035 09:01:43 17.91
2853 6797 PENNEC CHRISTIAN FRA H.40-49 1036 09:01:44 17.81
2854 3186 BLAND CHRIS UK H.50-59 411 09:01:45 17.36
2855 3206 SCOTT Chistopher UK H.30-39 952 09:01:46 18.04
2856 7590 DASTUGUE JEAN PIERRE FRA H.50-59 412 09:01:49 17.99
2857 1005 BLOEM MARK HOL H.40-49 1037 09:01:55 17.76
2858 8320 FAUCONNIER TIM BEL H.30-39 953 09:01:56 17.29
2859 4583 BEUKENKAMP COEN HOL H.30-39 954 09:02:06 17.15
2860 3559 LINTRUP BENT DAN H.40-49 1038 09:02:06 17.96
2861 3864 PORROT GAEL FRA H.40-49 1039 09:02:10 17.72
2862 5461 ALBERT DEKKERS HOL H.30-39 955 09:02:13 17.83
2863 4994 SMITH ALEX UK H.30-39 956 09:02:23 18.13
2864 3289 PERKS NICK UK H.30-39 957 09:02:28 17.80
2865 7192 VERMEULEN WILLIAM BEL H.18-29 346 09:02:29 17.90
2866 4216 DE KONING PETER JAN HOL H.40-49 1040 09:02:31 17.69
2867 6018 ANDEOL MICHEL FRA H.50-59 413 09:02:32 18.06
2868 5194 NIELSEN MARTIN DAN H.30-39 958 09:02:33 17.71
2869 6955 ANDEOL HUBERT FRA H.50-59 414 09:02:33 18.06
2870 6942 VAN GOOL PAUL BEL H.40-49 1041 09:02:36 18.05
2871 3581 GALLACHER KEVIN ANG H.40-49 1042 09:02:41 17.99
2872 879 DE HAAN ANTON BEL H.40-49 1043 09:02:42 17.04
2873 606 KIERNAN JOHN IRL H.40-49 1044 09:02:44 17.98
2874 3760 GHORAIN FRANCOIS BEL H.18-29 347 09:02:44 17.91
2875 7007 JACKSON ANDY ANG H.40-49 1045 09:02:45 18.12
2876 5526 BYRIALSEN LEIF DAN H.50-59 415 09:02:47 17.83
2877 2093 JAGER DERK-JAN HOL H.30-39 959 09:02:48 17.82
2878 2292 KRALJ SLAVKO HOL H.30-39 960 09:02:49 17.43
2879 4976 JAMES NEIL UK H.40-49 1046 09:02:49 17.46
2880 4690 SKATKA JESPER DAN H.40-49 1047 09:02:52 17.69
2881 8298 ROWAN CHRIS ANG H.50-59 416 09:02:53 18.00
2882 3517 HINCKE CLAUS SCHEEL DAN H.40-49 1048 09:03:02 17.86
2883 5652 VERKADE MENNO HOL H.40-49 1049 09:03:05 17.83
2884 8243 KLINK HERMAN HOL H.50-59 417 09:03:05 17.75
2885 3198 MCPHERSON FINLAY UK H.40-49 1050 09:03:05 18.11
2886 5651 VAN DEN BOGERT BART HOL H.40-49 1051 09:03:05 17.83
2887 74 CARON SERGE FRA H.40-49 1052 09:03:06 18.36
2888 4120 DE PAUW KEVIN BEL H.18-29 348 09:03:09 17.49
2889 8593 LAMBERT STEPHANE FRA H.30-39 961 09:03:10 17.55
2890 817 TER HEURNE SANDER HOL H.30-39 962 09:03:14 17.89
2891 927 FLORU JONATHAN BEL H.30-39 963 09:03:18 17.78
2892 3794 JIMENEZ NOEL FRA H.60-66 49 09:03:18 18.16
2893 7575 DUGUID JAMES ECO H.40-49 1053 09:03:18 18.06
2894 8879 TREDELL HEATH ANG H.40-49 1054 09:03:19 18.22
2895 2234 SEEGERS MILAN HOL H.18-29 349 09:03:20 17.93
2896 1875 LANGBERG HENNING DAN H.50-59 418 09:03:20 17.98
2897 8817 DECONINCK CLAUDE BEL H.40-49 1055 09:03:21 18.04
2898 2226 VAN DEN BERG HARRY HOL H.40-49 1056 09:03:22 17.36
2899 5141 VAN LERBERGHE FREDERIK BEL H.30-39 964 09:03:23 18.12
2900 7568 SCHOLL PATRICK SUI H.40-49 1057 09:03:24 17.74
2901 3827 MALARD REGIS FRA H.40-49 1058 09:03:25 18.15
2902 6547 STEFANO FANTI ITA H.50-59 419 09:03:27 17.80
2903 2478 PETERSEN JANUS DAN H.18-29 350 09:03:34 18.20
2904 832 VAN HERK DENNIS HOL H.30-39 965 09:03:37 18.05
2905 2933 MATHIE ROD UK H.40-49 1059 09:03:38 17.87
2906 5007 ROBBINS DAVID UK H.40-49 1060 09:03:41 17.86
2907 1545 VALLESPIN GARCIA JAVIER ESP H.40-49 1061 09:03:43 17.81
2908 772 FARZAN NANCY BEL F.50et+ 3 09:03:44 18.00
2909 5821 RUYMBEECK TOM BEL H.30-39 966 09:03:44 17.54
2910 6334 KEYNES TOGO ANG H.40-49 1062 09:03:50 16.13
2911 5608 OUDIJK HARMEN HOL H.18-29 351 09:03:50 17.65
2912 8033 BERGLUND ROLF LUX H.50-59 420 09:03:51 16.73
2913 1051 LOUIS MARC BEL H.50-59 421 09:03:56 17.94
2914 3844 LAMBEAUX XAVIER FRA H.30-39 967 09:03:57 18.13
2915 635 JENSEN JENS MUNDELI DAN H.40-49 1063 09:03:59 17.78
2916 2351 BORGHI FRANCO ITA H.50-59 422 09:03:59 17.99
2917 939 LAURITSEN PETER ELMER DAN H.60-66 50 09:04:01 17.72
2918 3132 FESSEL NICOLAJ DAN H.40-49 1064 09:04:01 18.03
2919 3459 SALWAY HUW PAY H.40-49 1065 09:04:03 17.99
2920 4324 DE ROUCK PETER BEL H.50-59 423 09:04:04 17.82
2921 1017 TER HORST WOUTER HOL H.30-39 968 09:04:05 17.63
2922 7989 BJORKMAN HAKAN SUE H.50-59 424 09:04:07 16.73
2923 7770 NUNEZ FIRVIDA ANGEL ESP H.30-39 969 09:04:08 17.63
2924 2118 DRIESSEN JACKY HOL H.18-29 352 09:04:12 17.70
2925 1297 WOODCOCK STUART SUI H.30-39 970 09:04:17 17.25
2926 1575 BAMELIS JELLE BEL H.18-29 353 09:04:20 17.60
2927 5448 VESTERGAARD JESPER DAN H.18-29 354 09:04:22 18.10
2928 3778 OKRZESA ANNA ANG F.35-49 33 09:04:24 17.70
2929 3296 JOERGENSEN LARS BOEJEN DAN H.40-49 1066 09:04:27 17.88
2930 2959 ROWE-HAM GERRY SUI H.30-39 971 09:04:27 17.38
2931 6877 FRANSEN ERIK BEL H.50-59 425 09:04:27 18.21
2932 2960 O CONNOR JON SUI H.40-49 1067 09:04:28 17.38
2933 4016 DE COOMAN GEOFFREY BEL H.30-39 972 09:04:33 17.99
2934 7711 GRANGER YVON FRA H.40-49 1068 09:04:35 17.41
2935 7656 DE SMEDT DIRK BEL H.40-49 1069 09:04:37 17.87
2936 8310 AERTS MARCO HOL H.50-59 426 09:04:37 17.90
2937 7689 LAUER MARC FRA H.40-49 1070 09:04:39 17.96
2938 2789 DIJKSMA RICK HOL H.30-39 973 09:04:44 17.72
2939 846 DRIESSEN DUCO HOL H.18-29 355 09:04:47 17.89
2940 3388 EECKHOUT PHILIPPE BEL H.50-59 427 09:04:47 18.05
2941 7841 SIPS NANCY BEL F.35-49 34 09:04:49 17.49
2942 8663 MAGNIEN AURELIEN FRA H.30-39 974 09:04:52 18.10
2943 1364 HEY JOHN ANG H.40-49 1071 09:04:54 18.21
2944 4255 VERAART ALBERT HOL H.40-49 1072 09:04:55 17.15
2945 7422 ANTONIO ESPIN NAVARRO ESP H.30-39 975 09:04:55 17.72
2946 4546 SCHOLTEN CASPAR HOL H.30-39 976 09:04:56 17.73
2947 768 Vancaudenberg RUDY BEL H.50-59 428 09:04:57 17.67
2948 3777 ROCHE DIARMUID IRL H.30-39 977 09:04:59 17.69
2949 7749 GARCIA VINCENT SUI H.50-59 429 09:05:00 17.93
2950 3642 SOLDEVILA JOSE FRA H.50-59 430 09:05:02 18.14
2951 3989 CASTIGLIONI FRANCESCA ITA F.35-49 35 09:05:05 17.46
2952 7611 GABRIEL JEROME FRA H.40-49 1073 09:05:08 17.53
2953 8480 KUBISIAK REMY FRA H.30-39 978 09:05:08 17.96
2954 8448 CUENOT CHRISTOPHE FRA H.40-49 1074 09:05:08 17.82
2955 989 HOFMAN PETER DAN H.40-49 1075 09:05:15 17.93
2956 8538 GJERDRUM TORE NOR H.30-39 979 09:05:17 17.97
2957 5413 INGLE STEVEN ANG H.40-49 1076 09:05:17 17.80
2958 8592 AYCAGUER FREDERIC FRA H.30-39 980 09:05:18 18.07
2959 2194 FRANKEN GERT-JAN HOL H.30-39 981 09:05:27 17.83
2960 3669 FOURCAULT ERIC FRA H.40-49 1077 09:05:30 17.34
2961 3108 BRAATHEN HENRIK DAN H.40-49 1078 09:05:31 18.05
2962 8454 KINDER WILLIAM ANG H.30-39 982 09:05:31 17.20
2963 5173 VERBAKEL FRENNE HOL H.18-29 356 09:05:36 17.87
2964 3335 JENSEN CLAUS W. DAN H.30-39 983 09:05:38 17.76
2965 5490 BROOTHAERTS NILS BEL H.18-29 357 09:05:40 17.52
2966 4184 TEERLINK REGINALD HOL H.40-49 1079 09:05:45 17.98
2967 7518 MADSEN STEEN ULRIK DAN H.50-59 431 09:05:48 17.67
2968 2410 UIL TACO HOL H.30-39 984 09:05:53 17.60
2969 5502 WAH JEREMY AUS H.50-59 432 09:05:56 17.56
2970 1073 SEJLING NIKOLAJ DAN H.30-39 985 09:06:00 17.92
2971 8017 MERTENS SANDER HOL H.30-39 986 09:06:01 16.73
2972 7750 ROSINACH OSCAR ESP H.30-39 987 09:06:07 17.57
2973 561 DEKKER BOUDEWIJN HOL H.18-29 358 09:06:08 17.87
2974 176 WINKELAAR MAXIM ETA H.30-39 988 09:06:09 17.57
2975 5067 JONES NOEL ALL H.30-39 989 09:06:10 19.11
2976 3665 HOAREAU JEAN FRANCOIS FRA H.40-49 1080 09:06:14 18.20
2977 3508 DOWNEY PATRICK CAN H.50-59 433 09:06:15 17.95
2978 6208 L EAU JOHAN BEL H.30-39 990 09:06:16 17.73
2979 940 RASMUSSEN PREBEN DAN H.60-66 51 09:06:17 17.40
2980 7866 CALZAVARA GREGORY FRA H.40-49 1081 09:06:18 17.87
2981 3180 O NEILL PAUL IRL H.40-49 1082 09:06:18 17.67
2982 4723 JENSEN LEIF DAN H.60-66 52 09:06:21 18.00
2983 2906 SøRENSEN LARS DAN H.40-49 1083 09:06:24 17.33
2984 5420 VERLINDEN PAUL HOL H.30-39 991 09:06:25 17.81
2985 880 DEGIVE HUGO BEL H.40-49 1084 09:06:26 16.91
2986 4395 WOLLARD JASON ETA H.40-49 1085 09:06:29 17.48
2987 7869 PEDERSEN MILLE DAN F.18-34 19 09:06:30 17.71
2988 5946 BIESUZ DOMINIQUE FRA H.50-59 434 09:06:33 18.04
2989 3721 PRENELLE IAN ANG H.40-49 1086 09:06:34 18.04
2990 4974 ELLIS MARK UK H.30-39 992 09:06:34 17.39
2991 6689 CUMIN MICHELE ITA H.30-39 993 09:06:35 17.77
2992 7726 DECRAENE PASCAL BEL H.40-49 1087 09:06:39 17.64
2993 3250 PEARS DAVID UK H.50-59 435 09:06:40 17.28
2994 8781 SKAVHAUG ANDREAS NOR H.30-39 994 09:06:42 17.93
2995 4310 VIGANO GIUSEPPE ITA H.40-49 1088 09:06:42 17.72
2996 3723 DEVERGIE ALAIN FRA H.50-59 436 09:06:44 17.76
2997 8499 COULIER NICO BEL H.40-49 1089 09:06:45 17.33
2998 2741 VAN DER SALM MAY HOL F.35-49 36 09:06:52 17.79
2999 8052 Cruickshanks ANDREW ECO H.40-49 1090 09:06:55 17.68
3000 3102 JOHANSEN SOREN DAN H.40-49 1091 09:07:00 18.02

Voir suite -> La Marmotte 2013 : du 3001ème au 4000ème

Na górę 









Na górę  
 Strefa prywatna   Prawa autorskie-Copyright: Ciśnijcie tu żeby przeczytać!